createdAt,value
2019-02-17T00:01:45.167Z,14.70
2019-02-17T00:04:12.978Z,13.57
2019-02-17T00:06:39.663Z,11.13
2019-02-17T00:09:06.479Z,11.00
2019-02-17T00:11:34.444Z,14.27
2019-02-17T00:14:01.320Z,16.67
2019-02-17T00:16:27.998Z,13.20
2019-02-17T00:18:54.667Z,11.20
2019-02-17T00:21:21.344Z,10.63
2019-02-17T00:23:50.426Z,17.97
2019-02-17T00:26:18.062Z,15.33
2019-02-17T00:28:44.716Z,13.57
2019-02-17T00:31:11.417Z,11.20
2019-02-17T00:33:38.055Z,12.23
2019-02-17T00:36:05.346Z,11.27
2019-02-17T00:38:32.972Z,14.03
2019-02-17T00:40:59.646Z,13.80
2019-02-17T00:43:26.503Z,12.53
2019-02-17T00:45:54.703Z,10.40
2019-02-17T00:48:21.666Z,12.63
2019-02-17T00:50:49.301Z,13.33
2019-02-17T00:53:16.130Z,12.30
2019-02-17T00:55:42.899Z,11.37
2019-02-17T00:58:10.884Z,14.87
2019-02-17T01:00:37.582Z,11.37
2019-02-17T01:03:04.325Z,10.43
2019-02-17T01:05:31.221Z,12.03
2019-02-17T01:07:58.672Z,12.47
2019-02-17T01:10:26.055Z,13.17
2019-02-17T01:12:52.963Z,14.00
2019-02-17T01:15:20.572Z,12.83
2019-02-17T01:17:48.362Z,9.00
2019-02-17T01:20:15.943Z,10.60
2019-02-17T01:22:43.357Z,12.60
2019-02-17T01:25:10.803Z,11.57
2019-02-17T01:27:37.531Z,10.47
2019-02-17T01:30:07.950Z,9.93
2019-02-17T01:32:34.604Z,10.10
2019-02-17T01:35:01.293Z,10.57
2019-02-17T01:37:28.696Z,14.03
2019-02-17T01:39:56.309Z,8.40
2019-02-17T01:42:27.707Z,8.13
2019-02-17T01:44:54.979Z,8.03
2019-02-17T01:47:22.214Z,8.33
2019-02-17T01:49:49.020Z,9.93
2019-02-17T01:52:15.965Z,8.70
2019-02-17T01:54:42.736Z,8.07
2019-02-17T01:57:10.133Z,7.93
2019-02-17T01:59:36.845Z,7.50
2019-02-17T02:02:04.453Z,10.37
2019-02-17T02:04:31.218Z,9.97
2019-02-17T02:06:57.929Z,8.50
2019-02-17T02:09:25.365Z,6.87
2019-02-17T02:11:53.120Z,6.70
2019-02-17T02:14:19.975Z,8.20
2019-02-17T02:16:47.490Z,6.67
2019-02-17T02:19:16.178Z,7.53
2019-02-17T02:21:42.971Z,8.37
2019-02-17T02:24:09.662Z,5.87
2019-02-17T02:26:36.298Z,8.30
2019-02-17T02:29:03.009Z,6.17
2019-02-17T02:31:30.521Z,6.00
2019-02-17T02:33:57.889Z,4.97
2019-02-17T02:36:24.695Z,5.40
2019-02-17T02:38:51.575Z,5.00
2019-02-17T02:41:18.626Z,5.17
2019-02-17T02:43:45.656Z,4.93
2019-02-17T02:46:13.265Z,4.40
2019-02-17T02:48:40.683Z,7.17
2019-02-17T02:51:08.364Z,5.47
2019-02-17T02:53:35.759Z,5.50
2019-02-17T02:56:02.857Z,4.87
2019-02-17T02:58:30.457Z,5.20
2019-02-17T03:00:57.148Z,4.90
2019-02-17T03:03:23.834Z,5.73
2019-02-17T03:05:50.630Z,4.50
2019-02-17T03:08:17.992Z,5.23
2019-02-17T03:10:47.911Z,6.43
2019-02-17T03:13:14.809Z,4.70
2019-02-17T03:15:41.852Z,4.20
2019-02-17T03:18:08.573Z,4.60
2019-02-17T03:20:35.307Z,4.10
2019-02-17T03:23:02.728Z,4.67
2019-02-17T03:25:29.697Z,3.97
2019-02-17T03:27:56.533Z,4.30
2019-02-17T03:30:23.328Z,3.73
2019-02-17T03:32:50.244Z,3.77
2019-02-17T03:35:18.498Z,5.00
2019-02-17T03:37:45.365Z,3.73
2019-02-17T03:40:12.532Z,3.63
2019-02-17T03:42:39.401Z,5.37
2019-02-17T03:45:06.196Z,3.40
2019-02-17T03:47:32.901Z,3.63
2019-02-17T03:49:59.763Z,7.27
2019-02-17T03:52:26.443Z,4.80
2019-02-17T03:54:53.885Z,6.00
2019-02-17T03:57:20.624Z,3.57
2019-02-17T03:59:47.301Z,6.23
2019-02-17T04:02:13.975Z,3.67
2019-02-17T04:04:41.396Z,5.57
2019-02-17T04:07:08.841Z,3.30
2019-02-17T04:09:35.562Z,4.17
2019-02-17T04:12:02.701Z,6.43
2019-02-17T04:14:29.382Z,4.80
2019-02-17T04:16:56.074Z,4.17
2019-02-17T04:19:22.788Z,3.37
2019-02-17T04:21:49.421Z,4.17
2019-02-17T04:24:16.092Z,5.47
2019-02-17T04:26:43.573Z,5.33
2019-02-17T04:29:10.588Z,4.47
2019-02-17T04:31:37.999Z,3.80
2019-02-17T04:34:04.648Z,3.47
2019-02-17T04:36:31.271Z,2.80
2019-02-17T04:38:57.972Z,3.63
2019-02-17T04:41:26.112Z,3.90
2019-02-17T04:43:53.682Z,3.00
2019-02-17T04:46:21.869Z,3.07
2019-02-17T04:48:49.301Z,3.63
2019-02-17T04:51:16.438Z,4.97
2019-02-17T04:53:43.204Z,2.73
2019-02-17T04:56:10.634Z,2.80
2019-02-17T04:58:37.289Z,2.80
2019-02-17T05:01:04.580Z,3.90
2019-02-17T05:03:31.283Z,2.87
2019-02-17T05:05:57.979Z,2.83
2019-02-17T05:08:24.740Z,3.30
2019-02-17T05:10:51.408Z,5.93
2019-02-17T05:13:18.042Z,6.00
2019-02-17T05:15:45.520Z,4.13
2019-02-17T05:18:12.311Z,4.30
2019-02-17T05:20:39.030Z,2.97
2019-02-17T05:23:06.010Z,2.87
2019-02-17T05:25:32.726Z,3.20
2019-02-17T05:28:00.121Z,3.17
2019-02-17T05:30:27.552Z,4.47
2019-02-17T05:32:54.670Z,3.50
2019-02-17T05:35:21.367Z,2.83
2019-02-17T05:37:48.138Z,2.90
2019-02-17T05:40:16.329Z,2.87
2019-02-17T05:42:43.074Z,3.13
2019-02-17T05:45:09.855Z,5.77
2019-02-17T05:47:36.519Z,5.27
2019-02-17T05:50:03.220Z,4.27
2019-02-17T05:52:31.476Z,3.73
2019-02-17T05:54:58.175Z,3.50
2019-02-17T05:57:25.607Z,5.40
2019-02-17T05:59:52.487Z,3.33
2019-02-17T06:02:20.432Z,3.63
2019-02-17T06:04:48.289Z,6.30
2019-02-17T06:07:14.991Z,2.93
2019-02-17T06:09:41.644Z,3.50
2019-02-17T06:12:08.325Z,4.63
2019-02-17T06:14:35.846Z,2.40
2019-02-17T06:17:02.470Z,3.80
2019-02-17T06:19:29.113Z,4.07
2019-02-17T06:21:55.879Z,2.40
2019-02-17T06:24:22.922Z,4.33
2019-02-17T06:26:49.599Z,3.57
2019-02-17T06:29:16.307Z,2.17
2019-02-17T06:31:43.003Z,2.93
2019-02-17T06:34:09.704Z,3.17
2019-02-17T06:36:36.601Z,3.10
2019-02-17T06:39:04.386Z,3.80
2019-02-17T06:41:32.739Z,3.13
2019-02-17T06:44:00.268Z,4.27
2019-02-17T06:46:27.573Z,1.87
2019-02-17T06:48:54.413Z,2.20
2019-02-17T06:51:21.131Z,5.13
2019-02-17T06:53:49.194Z,2.90
2019-02-17T06:59:09.153Z,2.95
2019-02-17T07:01:37.758Z,3.70
2019-02-17T07:04:04.462Z,2.67
2019-02-17T07:06:32.460Z,2.10
2019-02-17T07:08:59.293Z,4.17
2019-02-17T07:11:26.006Z,4.57
2019-02-17T07:13:53.333Z,1.90
2019-02-17T07:16:21.121Z,1.90
2019-02-17T07:18:47.790Z,2.30
2019-02-17T07:21:16.019Z,3.90
2019-02-17T07:23:43.008Z,2.63
2019-02-17T07:26:09.792Z,2.37
2019-02-17T07:28:36.524Z,2.80
2019-02-17T07:31:03.204Z,4.40
2019-02-17T07:33:29.851Z,2.73
2019-02-17T07:35:57.360Z,3.40
2019-02-17T07:38:24.016Z,3.67
2019-02-17T07:40:50.868Z,1.83
2019-02-17T07:43:18.901Z,3.10
2019-02-17T07:45:45.813Z,3.63
2019-02-17T07:48:12.544Z,1.43
2019-02-17T07:50:39.281Z,1.80
2019-02-17T07:53:05.953Z,3.13
2019-02-17T07:55:33.520Z,2.10
2019-02-17T07:58:00.484Z,1.27
2019-02-17T08:00:27.498Z,3.83
2019-02-17T08:02:54.302Z,2.27
2019-02-17T08:05:22.098Z,3.20
2019-02-17T08:07:49.556Z,1.80
2019-02-17T08:10:17.152Z,2.80
2019-02-17T08:12:43.900Z,1.50
2019-02-17T08:15:10.652Z,3.53
2019-02-17T08:17:37.386Z,1.97
2019-02-17T08:20:29.558Z,1.37
2019-02-17T08:23:03.617Z,3.03
2019-02-17T08:25:31.394Z,1.87
2019-02-17T08:27:58.905Z,1.90
2019-02-17T08:30:26.321Z,2.13
2019-02-17T08:32:53.009Z,1.37
2019-02-17T08:35:19.705Z,2.50
2019-02-17T08:37:46.699Z,1.27
2019-02-17T08:40:14.502Z,0.90
2019-02-17T08:42:43.611Z,2.23
2019-02-17T08:45:11.883Z,2.03
2019-02-17T08:47:38.719Z,1.20
2019-02-17T08:50:05.732Z,1.37
2019-02-17T08:52:33.218Z,0.80
2019-02-17T08:54:59.982Z,3.53
2019-02-17T08:57:26.822Z,2.07
2019-02-17T08:59:53.551Z,1.13
2019-02-17T09:02:21.016Z,3.13
2019-02-17T09:04:48.860Z,1.00
2019-02-17T09:07:15.571Z,1.37
2019-02-17T09:09:43.982Z,0.90
2019-02-17T09:12:10.810Z,1.73
2019-02-17T09:14:37.566Z,1.13
2019-02-17T09:17:04.330Z,0.90
2019-02-17T09:19:31.216Z,2.13
2019-02-17T09:21:58.808Z,3.40
2019-02-17T09:24:25.931Z,3.97
2019-02-17T09:26:52.926Z,1.40
2019-02-17T09:29:20.460Z,2.30
2019-02-17T09:31:47.250Z,2.03
2019-02-17T09:34:14.303Z,1.70
2019-02-17T09:36:41.197Z,2.50
2019-02-17T09:39:08.162Z,2.80
2019-02-17T09:41:35.204Z,2.37
2019-02-17T09:44:02.279Z,2.40
2019-02-17T09:46:33.030Z,2.90
2019-02-17T09:49:00.735Z,3.23
2019-02-17T09:51:27.497Z,3.33
2019-02-17T09:53:54.347Z,5.13
2019-02-17T09:56:21.103Z,3.10
2019-02-17T09:58:48.346Z,2.27
2019-02-17T10:01:15.253Z,2.87
2019-02-17T10:03:41.949Z,1.83
2019-02-17T10:06:08.616Z,1.80
2019-02-17T10:08:36.747Z,2.87
2019-02-17T10:11:03.894Z,3.20
2019-02-17T10:13:31.697Z,1.67
2019-02-17T10:15:59.517Z,2.50
2019-02-17T10:18:26.352Z,2.57
2019-02-17T10:20:53.034Z,2.40
2019-02-17T10:23:19.983Z,2.30
2019-02-17T10:25:47.989Z,3.57
2019-02-17T10:28:14.585Z,3.00
2019-02-17T10:30:41.975Z,5.20
2019-02-17T10:33:09.042Z,6.83
2019-02-17T10:35:36.381Z,3.47
2019-02-17T10:38:03.331Z,1.73
2019-02-17T10:40:30.088Z,2.23
2019-02-17T10:42:56.796Z,3.00
2019-02-17T10:45:24.928Z,1.53
2019-02-17T10:47:52.638Z,1.80
2019-02-17T10:50:20.770Z,1.43
2019-02-17T10:52:49.902Z,2.57
2019-02-17T10:55:17.402Z,3.70
2019-02-17T10:57:44.369Z,1.80
2019-02-17T11:00:13.148Z,1.77
2019-02-17T11:02:47.252Z,1.77
2019-02-17T11:05:07.874Z,4.77
2019-02-17T11:07:35.077Z,1.73
2019-02-17T11:10:01.859Z,2.40
2019-02-17T11:12:28.575Z,1.90
2019-02-17T11:14:55.533Z,3.20
2019-02-17T11:17:22.196Z,4.10
2019-02-17T11:19:49.022Z,1.60
2019-02-17T11:22:22.950Z,1.93
2019-02-17T11:24:42.391Z,2.03
2019-02-17T11:27:09.139Z,2.13
2019-02-17T11:29:35.834Z,4.27
2019-02-17T11:32:02.511Z,2.50
2019-02-17T11:34:29.310Z,1.13
2019-02-17T11:36:56.016Z,2.20
2019-02-17T11:39:22.699Z,1.57
2019-02-17T11:41:49.502Z,2.03
2019-02-17T11:44:16.245Z,1.97
2019-02-17T11:46:43.013Z,2.27
2019-02-17T11:49:09.750Z,2.37
2019-02-17T11:51:37.216Z,1.67
2019-02-17T11:54:03.893Z,2.67
2019-02-17T11:56:30.739Z,1.93
2019-02-17T11:58:57.498Z,2.70
2019-02-17T12:01:24.286Z,1.90
2019-02-17T12:03:51.029Z,3.33
2019-02-17T12:06:18.536Z,2.90
2019-02-17T12:08:45.909Z,1.60
2019-02-17T12:11:14.972Z,3.30
2019-02-17T12:13:41.665Z,1.83
2019-02-17T12:16:08.615Z,3.17
2019-02-17T12:18:35.722Z,1.90
2019-02-17T12:21:13.135Z,3.70
2019-02-17T12:23:43.593Z,3.87
2019-02-17T12:26:12.156Z,3.77
2019-02-17T12:28:42.529Z,2.67
2019-02-17T12:31:10.103Z,3.00
2019-02-17T12:33:37.600Z,2.27
2019-02-17T12:36:05.056Z,4.53
2019-02-17T12:38:31.742Z,4.13
2019-02-17T12:40:58.411Z,3.00
2019-02-17T12:43:25.180Z,1.73
2019-02-17T12:45:51.848Z,6.17
2019-02-17T12:48:18.516Z,2.30
2019-02-17T12:50:46.431Z,3.13
2019-02-17T12:53:13.104Z,3.80
2019-02-17T12:55:39.753Z,2.30
2019-02-17T12:58:06.517Z,3.67
2019-02-17T13:00:33.922Z,2.23
2019-02-17T13:03:00.669Z,1.83
2019-02-17T13:05:27.367Z,1.30
2019-02-17T13:07:54.802Z,1.23
2019-02-17T13:10:21.519Z,2.80
2019-02-17T13:12:49.035Z,1.70
2019-02-17T13:15:16.488Z,3.80
2019-02-17T13:17:43.926Z,2.23
2019-02-17T13:20:12.890Z,1.90
2019-02-17T13:22:40.119Z,3.03
2019-02-17T13:25:07.717Z,4.43
2019-02-17T13:27:34.404Z,1.57
2019-02-17T13:30:01.077Z,1.50
2019-02-17T13:32:27.871Z,1.70
2019-02-17T13:34:55.254Z,2.27
2019-02-17T13:37:21.963Z,2.67
2019-02-17T13:39:49.405Z,3.13
2019-02-17T13:42:18.527Z,1.57
2019-02-17T13:44:45.371Z,1.83
2019-02-17T13:47:12.232Z,1.97
2019-02-17T13:49:38.896Z,1.70
2019-02-17T13:52:06.734Z,3.70
2019-02-17T13:54:33.550Z,2.30
2019-02-17T13:57:01.115Z,2.60
2019-02-17T13:59:27.813Z,1.80
2019-02-17T14:01:54.669Z,1.20
2019-02-17T14:04:24.506Z,2.57
2019-02-17T14:06:52.032Z,2.27
2019-02-17T14:09:18.758Z,1.33
2019-02-17T14:11:45.837Z,2.77
2019-02-17T14:14:13.153Z,2.23
2019-02-17T14:16:40.270Z,2.90
2019-02-17T14:19:07.406Z,2.70
2019-02-17T14:21:34.226Z,2.17
2019-02-17T14:24:01.643Z,3.50
2019-02-17T14:26:28.690Z,1.60
2019-02-17T14:28:55.505Z,2.10
2019-02-17T14:31:22.165Z,1.43
2019-02-17T14:33:58.124Z,1.87
2019-02-17T14:36:16.039Z,1.50
2019-02-17T14:38:42.813Z,1.73
2019-02-17T14:41:09.657Z,2.77
2019-02-17T14:43:37.338Z,1.57
2019-02-17T14:46:04.862Z,1.83
2019-02-17T14:48:31.804Z,2.77
2019-02-17T14:51:00.265Z,1.43
2019-02-17T14:53:27.129Z,1.13
2019-02-17T14:55:54.180Z,3.57
2019-02-17T14:58:20.969Z,4.43
2019-02-17T15:00:49.971Z,1.70
2019-02-17T15:03:17.714Z,2.90
2019-02-17T15:05:48.180Z,2.03
2019-02-17T15:08:15.335Z,2.40
2019-02-17T15:10:42.197Z,2.83
2019-02-17T15:13:09.472Z,1.43
2019-02-17T15:15:36.278Z,2.53
2019-02-17T15:18:03.385Z,1.90
2019-02-17T15:20:30.855Z,1.80
2019-02-17T15:22:57.907Z,1.50
2019-02-17T15:25:24.754Z,3.07
2019-02-17T15:27:52.225Z,5.37
2019-02-17T15:30:19.008Z,3.27
2019-02-17T15:32:45.951Z,2.67
2019-02-17T15:35:13.676Z,3.03
2019-02-17T15:37:41.565Z,1.20
2019-02-17T15:40:12.419Z,3.07
2019-02-17T15:42:40.247Z,4.03
2019-02-17T15:45:07.032Z,2.23
2019-02-17T15:47:34.391Z,3.07
2019-02-17T15:50:01.909Z,1.07
2019-02-17T15:52:30.133Z,1.77
2019-02-17T15:54:56.851Z,5.93
2019-02-17T15:57:25.041Z,2.47
2019-02-17T15:59:51.823Z,1.37
2019-02-17T16:02:23.576Z,2.00
2019-02-17T16:04:51.221Z,3.13
2019-02-17T16:07:18.914Z,2.00
2019-02-17T16:09:45.744Z,2.13
2019-02-17T16:12:13.216Z,2.10
2019-02-17T16:14:41.947Z,3.57
2019-02-17T16:17:08.276Z,3.13
2019-02-17T16:19:35.746Z,5.30
2019-02-17T16:22:02.671Z,2.63
2019-02-17T16:24:29.377Z,3.67
2019-02-17T16:26:56.547Z,2.00
2019-02-17T16:29:23.607Z,1.40
2019-02-17T16:31:50.480Z,2.07
2019-02-17T16:34:17.454Z,4.10
2019-02-17T16:36:44.303Z,2.73
2019-02-17T16:39:11.046Z,1.33
2019-02-17T16:41:39.786Z,5.20
2019-02-17T16:44:07.383Z,1.47
2019-02-17T16:46:34.091Z,4.20
2019-02-17T16:49:01.261Z,5.07
2019-02-17T16:51:28.966Z,2.10
2019-02-17T16:53:55.641Z,3.33
2019-02-17T16:56:22.740Z,4.50
2019-02-17T16:58:49.763Z,1.77
2019-02-17T17:01:16.515Z,2.03
2019-02-17T17:03:44.326Z,3.53
2019-02-17T17:06:12.253Z,2.10
2019-02-17T17:08:40.961Z,4.20
2019-02-17T17:11:08.317Z,1.43
2019-02-17T17:13:35.263Z,3.27
2019-02-17T17:16:02.098Z,1.27
2019-02-17T17:18:28.923Z,2.00
2019-02-17T17:20:57.043Z,2.63
2019-02-17T17:23:23.879Z,1.80
2019-02-17T17:25:50.646Z,4.73
2019-02-17T17:28:18.176Z,3.70
2019-02-17T17:30:45.957Z,1.83
2019-02-17T17:33:15.718Z,3.00
2019-02-17T17:35:47.904Z,2.47
2019-02-17T17:38:14.807Z,2.03
2019-02-17T17:40:42.341Z,3.23
2019-02-17T17:43:09.029Z,2.07
2019-02-17T17:45:36.435Z,1.90
2019-02-17T17:48:03.403Z,3.53
2019-02-17T17:50:30.847Z,4.17
2019-02-17T17:52:58.132Z,3.10
2019-02-17T17:55:24.920Z,1.57
2019-02-17T17:57:53.649Z,3.33
2019-02-17T18:00:21.362Z,2.07
2019-02-17T18:02:48.332Z,3.50
2019-02-17T18:05:16.890Z,4.03
2019-02-17T18:07:44.826Z,5.40
2019-02-17T18:10:14.664Z,2.20
2019-02-17T18:12:41.440Z,1.57
2019-02-17T18:15:09.778Z,2.47
2019-02-17T18:17:39.593Z,4.07
2019-02-17T18:20:06.503Z,1.93
2019-02-17T18:22:33.710Z,2.30
2019-02-17T18:25:02.246Z,2.73
2019-02-17T18:27:30.518Z,2.03
2019-02-17T18:29:57.383Z,2.40
2019-02-17T18:32:24.349Z,5.80
2019-02-17T18:34:51.351Z,2.70
2019-02-17T18:37:18.185Z,3.67
2019-02-17T18:39:45.775Z,2.37
2019-02-17T18:42:13.194Z,3.23
2019-02-17T18:44:39.842Z,1.97
2019-02-17T18:47:07.705Z,2.10
2019-02-17T18:49:36.508Z,2.83
2019-02-17T18:52:04.303Z,2.13
2019-02-17T18:54:31.825Z,2.57
2019-02-17T18:57:08.054Z,4.10
2019-02-17T18:59:26.515Z,2.83
2019-02-17T19:01:54.070Z,3.33
2019-02-17T19:04:23.173Z,3.00
2019-02-17T19:06:55.874Z,2.10
2019-02-17T19:09:22.770Z,2.93
2019-02-17T19:11:52.108Z,2.53
2019-02-17T19:14:19.998Z,3.73
2019-02-17T19:16:50.118Z,4.77
2019-02-17T19:19:18.722Z,3.10
2019-02-17T19:21:45.760Z,2.50
2019-02-17T19:24:12.586Z,2.87
2019-02-17T19:26:39.993Z,3.77
2019-02-17T19:29:07.406Z,2.83
2019-02-17T19:31:34.620Z,4.63
2019-02-17T19:34:04.413Z,3.37
2019-02-17T19:36:31.437Z,2.53
2019-02-17T19:38:59.292Z,2.77
2019-02-17T19:41:27.468Z,5.27
2019-02-17T19:43:54.405Z,3.67
2019-02-17T19:46:21.365Z,2.67
2019-02-17T19:48:48.188Z,4.33
2019-02-17T19:51:15.759Z,3.57
2019-02-17T19:53:43.631Z,2.17
2019-02-17T19:56:11.264Z,2.87
2019-02-17T19:58:37.948Z,3.00
2019-02-17T20:01:05.583Z,3.30
2019-02-17T20:03:34.439Z,3.07
2019-02-17T20:06:02.847Z,2.50
2019-02-17T20:08:30.282Z,2.90
2019-02-17T20:10:56.968Z,2.33
2019-02-17T20:13:23.777Z,3.37
2019-02-17T20:15:53.635Z,3.27
2019-02-17T20:18:20.416Z,3.20
2019-02-17T20:20:47.118Z,2.27
2019-02-17T20:23:13.937Z,4.50
2019-02-17T20:25:40.675Z,3.77
2019-02-17T20:28:07.378Z,4.87
2019-02-17T20:30:34.086Z,2.47
2019-02-17T20:33:01.757Z,4.27
2019-02-17T20:35:31.613Z,5.20
2019-02-17T20:37:58.460Z,2.63
2019-02-17T20:40:26.818Z,3.60
2019-02-17T20:42:54.505Z,3.23
2019-02-17T20:45:21.917Z,2.80
2019-02-17T20:47:48.584Z,3.30
2019-02-17T20:50:16.272Z,4.17
2019-02-17T20:52:43.720Z,3.00
2019-02-17T20:55:10.512Z,2.90
2019-02-17T20:57:37.168Z,3.33
2019-02-17T21:00:04.051Z,5.20
2019-02-17T21:02:31.546Z,3.57
2019-02-17T21:04:58.218Z,4.80
2019-02-17T21:07:25.711Z,3.20
2019-02-17T21:09:53.265Z,5.67
2019-02-17T21:12:20.825Z,3.87
2019-02-17T21:14:47.638Z,2.57
2019-02-17T21:17:14.295Z,4.67
2019-02-17T21:19:41.765Z,4.37
2019-02-17T21:22:10.041Z,4.20
2019-02-17T21:24:37.804Z,3.57
2019-02-17T21:27:04.491Z,3.37
2019-02-17T21:29:31.232Z,3.07
2019-02-17T21:31:58.371Z,5.27
2019-02-17T21:34:25.143Z,2.83
2019-02-17T21:36:52.483Z,5.70
2019-02-17T21:39:20.082Z,8.63
2019-02-17T21:41:47.627Z,3.83
2019-02-17T21:44:16.689Z,2.93
2019-02-17T21:46:43.107Z,4.37
2019-02-17T21:49:10.462Z,5.57
2019-02-17T21:51:37.205Z,4.17
2019-02-17T21:54:04.042Z,4.33
2019-02-17T21:56:30.705Z,4.90
2019-02-17T21:58:57.445Z,2.40
2019-02-17T22:01:24.265Z,3.13
2019-02-17T22:03:50.912Z,3.57
2019-02-17T22:06:17.627Z,2.80
2019-02-17T22:08:44.463Z,5.17
2019-02-17T22:11:11.404Z,2.77
2019-02-17T22:13:38.898Z,2.83
2019-02-17T22:16:06.370Z,5.27
2019-02-17T22:18:33.357Z,3.17
2019-02-17T22:21:00.173Z,3.73
2019-02-17T22:23:26.978Z,3.13
2019-02-17T22:25:53.682Z,2.77
2019-02-17T22:28:21.594Z,3.40
2019-02-17T22:30:48.332Z,4.23
2019-02-17T22:33:15.139Z,6.47
2019-02-17T22:35:41.900Z,2.90
2019-02-17T22:38:08.621Z,3.27
2019-02-17T22:40:35.298Z,3.57
2019-02-17T22:43:01.987Z,4.93
2019-02-17T22:45:29.402Z,3.60
2019-02-17T22:47:56.090Z,3.67
2019-02-17T22:50:22.837Z,4.00
2019-02-17T22:52:49.524Z,6.30
2019-02-17T22:55:16.195Z,8.63
2019-02-17T22:57:43.627Z,5.60
2019-02-17T23:00:16.502Z,3.30
2019-02-17T23:02:43.249Z,4.03
2019-02-17T23:05:10.038Z,4.73
2019-02-17T23:07:36.797Z,3.90
2019-02-17T23:10:03.567Z,6.27
2019-02-17T23:12:30.274Z,4.83
2019-02-17T23:14:56.967Z,4.53
2019-02-17T23:17:23.719Z,3.57
2019-02-17T23:19:51.179Z,8.87
2019-02-17T23:22:18.590Z,2.70
2019-02-17T23:24:45.369Z,9.03
2019-02-17T23:27:12.886Z,4.17
2019-02-17T23:29:39.532Z,3.60
2019-02-17T23:32:06.231Z,5.13
2019-02-17T23:34:33.687Z,4.60
2019-02-17T23:37:04.120Z,9.90
2019-02-17T23:39:27.852Z,3.23
2019-02-17T23:41:56.036Z,6.10
2019-02-17T23:44:23.418Z,3.57
2019-02-17T23:46:50.868Z,5.80
2019-02-17T23:49:17.616Z,6.87
2019-02-17T23:51:44.292Z,2.73
2019-02-17T23:54:10.951Z,5.30
2019-02-17T23:56:37.632Z,2.87
2019-02-17T23:59:04.280Z,4.23
